Time;durP1;ratioP1;P1;durP2;ratioP2;P2;SDS_P1;SDS_P2;PMS_P1;PMS_P2;Temp;Humidity;BMP_temperature;BMP_pressure;BME280_temperature;BME280_humidity;BME280_pressure;Samples;Min_cycle;Max_cycle;Signal;HPM_P1;HPM_P2
2023/07/12 00:01:17;;;;;;;0.20;0.20;;;;;;;;;;5075195;28;20573;-92
2023/07/12 00:03:43;;;;;;;0.10;0.10;;;;;;;;;;5093236;28;20028;-92
2023/07/12 00:06:13;;;;;;;0.13;0.13;;;;;;;;;;5075080;28;20233;-92
2023/07/12 00:08:40;;;;;;;0.10;0.00;;;;;;;;;;5093613;28;20441;-92
2023/07/12 00:11:12;;;;;;;0.70;0.70;;;;;;;;;;5093255;28;20158;-92
2023/07/12 00:13:38;;;;;;;3.83;1.65;;;;;;;;;;5093060;28;20377;-93
2023/07/12 00:16:10;;;;;;;0.28;0.25;;;;;;;;;;5074875;28;20027;-92
2023/07/12 00:18:36;;;;;;;0.32;0.28;;;;;;;;;;5092868;28;20032;-92
2023/07/12 00:21:02;;;;;;;0.10;0.10;;;;;;;;;;5093323;28;20082;-93
2023/07/12 00:23:28;;;;;;;0.45;0.38;;;;;;;;;;5092946;28;20078;-92
2023/07/12 00:25:54;;;;;;;0.10;0.10;;;;;;;;;;5092874;28;20024;-92
2023/07/12 00:28:23;;;;;;;0.10;0.10;;;;;;;;;;5074637;28;20059;-92
2023/07/12 00:30:50;;;;;;;0.10;0.10;;;;;;;;;;5074759;28;20509;-91
2023/07/12 00:33:17;;;;;;;0.00;0.00;;;;;;;;;;5074606;28;20024;-92
2023/07/12 00:35:43;;;;;;;0.00;0.00;;;;;;;;;;5074876;28;20036;-91
2023/07/12 00:38:15;;;;;;;0.03;0.03;;;;;;;;;;5093379;28;20024;-92
2023/07/12 00:40:41;;;;;;;0.10;0.10;;;;;;;;;;5092984;28;20051;-92
2023/07/12 00:43:16;;;;;;;0.10;0.10;;;;;;;;;;5074269;28;20025;-92
2023/07/12 00:45:42;;;;;;;0.52;0.10;;;;;;;;;;5092722;28;20567;-92
2023/07/12 00:48:12;;;;;;;0.00;0.00;;;;;;;;;;5074571;28;20025;-92
2023/07/12 00:50:38;;;;;;;0.03;0.03;;;;;;;;;;5092714;28;20388;-92
2023/07/12 00:53:05;;;;;;;0.00;0.00;;;;;;;;;;5095485;28;20058;-92
2023/07/12 00:55:49;;;;;;;0.10;0.10;;;;;;;;;;5097003;28;20036;-93
2023/07/12 00:58:15;;;;;;;0.30;0.30;;;;;;;;;;5097134;28;20048;-92
2023/07/12 01:00:41;;;;;;;0.10;0.10;;;;;;;;;;5097015;28;20043;-92
2023/07/12 01:03:08;;;;;;;0.08;0.08;;;;;;;;;;5096746;28;20035;-93
2023/07/12 01:05:35;;;;;;;0.28;0.25;;;;;;;;;;5078751;28;20024;-93
2023/07/12 01:08:01;;;;;;;0.00;0.00;;;;;;;;;;5096781;28;20036;-92
2023/07/12 01:10:27;;;;;;;0.13;0.10;;;;;;;;;;5078169;28;20021;-93
2023/07/12 01:12:53;;;;;;;0.00;0.00;;;;;;;;;;5097238;28;20519;-94
2023/07/12 01:15:19;;;;;;;0.45;0.45;;;;;;;;;;5096281;28;20039;-90
2023/07/12 01:17:45;;;;;;;0.08;0.08;;;;;;;;;;5095931;28;20020;-90
2023/07/12 01:20:11;;;;;;;0.52;0.47;;;;;;;;;;5077955;28;20028;-91
2023/07/12 01:22:37;;;;;;;1.35;1.08;;;;;;;;;;5096103;28;20376;-91
2023/07/12 01:25:04;;;;;;;2.60;1.38;;;;;;;;;;5095874;28;20024;-91
2023/07/12 01:27:30;;;;;;;0.90;0.90;;;;;;;;;;5096379;28;20419;-91
2023/07/12 01:29:56;;;;;;;18.13;2.92;;;;;;;;;;5096035;28;20038;-94
2023/07/12 01:32:22;;;;;;;1.42;1.08;;;;;;;;;;5096332;28;20119;-94
2023/07/12 01:34:48;;;;;;;0.45;0.45;;;;;;;;;;5077961;28;20032;-92
2023/07/12 01:37:14;;;;;;;0.38;0.38;;;;;;;;;;5095902;28;20076;-92
2023/07/12 01:39:40;;;;;;;0.95;0.88;;;;;;;;;;5096085;28;20028;-92
2023/07/12 01:42:06;;;;;;;0.50;0.50;;;;;;;;;;5096231;28;20488;-92
2023/07/12 01:44:32;;;;;;;0.20;0.20;;;;;;;;;;5078003;28;20032;-92
2023/07/12 01:46:58;;;;;;;0.10;0.10;;;;;;;;;;5095953;28;20020;-92
2023/07/12 01:49:24;;;;;;;0.95;0.75;;;;;;;;;;5095989;28;20031;-92
2023/07/12 01:51:50;;;;;;;0.13;0.13;;;;;;;;;;5077738;28;20444;-93
2023/07/12 01:54:16;;;;;;;0.13;0.13;;;;;;;;;;5096013;28;20044;-93
2023/07/12 01:56:42;;;;;;;0.73;0.50;;;;;;;;;;5077935;28;20403;-93
2023/07/12 01:59:08;;;;;;;0.10;0.10;;;;;;;;;;5095948;28;20028;-93
2023/07/12 02:01:34;;;;;;;0.00;0.00;;;;;;;;;;5077670;28;20047;-93
2023/07/12 02:04:00;;;;;;;0.20;0.20;;;;;;;;;;5095237;28;20035;-93
2023/07/12 02:06:26;;;;;;;0.10;0.10;;;;;;;;;;5077572;28;20016;-93
2023/07/12 02:08:52;;;;;;;0.30;0.15;;;;;;;;;;5077336;28;20050;-94
2023/07/12 02:11:18;;;;;;;0.13;0.13;;;;;;;;;;5095866;28;20098;-94
2023/07/12 02:13:44;;;;;;;0.15;0.15;;;;;;;;;;5077365;28;20036;-93
2023/07/12 02:16:10;;;;;;;1.10;0.35;;;;;;;;;;5095493;28;20105;-93
2023/07/12 02:18:36;;;;;;;0.38;0.38;;;;;;;;;;5095617;28;20028;-93
2023/07/12 02:21:02;;;;;;;2.65;0.70;;;;;;;;;;5095367;28;20107;-93
2023/07/12 02:23:28;;;;;;;6.05;1.50;;;;;;;;;;5077488;28;20028;-93
2023/07/12 02:25:54;;;;;;;0.32;0.30;;;;;;;;;;5095487;28;20020;-93
2023/07/12 02:28:20;;;;;;;0.43;0.43;;;;;;;;;;5095014;28;20051;-93
2023/07/12 02:30:46;;;;;;;0.17;0.17;;;;;;;;;;5095796;28;20460;-93
2023/07/12 02:33:12;;;;;;;0.32;0.32;;;;;;;;;;5077123;28;20119;-93
2023/07/12 02:35:40;;;;;;;1.27;0.52;;;;;;;;;;5095241;28;20059;-93
2023/07/12 02:38:06;;;;;;;0.20;0.20;;;;;;;;;;5094957;28;20070;-92
2023/07/12 02:40:32;;;;;;;4.57;0.90;;;;;;;;;;5095035;28;20028;-93
2023/07/12 02:42:58;;;;;;;0.52;0.52;;;;;;;;;;5077082;28;20457;-93
2023/07/12 02:45:24;;;;;;;0.43;0.43;;;;;;;;;;5095019;28;20040;-93
2023/07/12 02:47:50;;;;;;;0.13;0.08;;;;;;;;;;5095363;28;20076;-93
2023/07/12 02:50:16;;;;;;;0.08;0.08;;;;;;;;;;5094873;28;20062;-94
2023/07/12 02:52:44;;;;;;;0.10;0.10;;;;;;;;;;5094389;28;20028;-93
2023/07/12 02:55:10;;;;;;;0.10;0.10;;;;;;;;;;5095129;28;20046;-95
2023/07/12 02:57:36;;;;;;;1.85;0.22;;;;;;;;;;5095148;28;20020;-92
2023/07/12 03:00:03;;;;;;;0.10;0.10;;;;;;;;;;5094646;28;20028;-93
2023/07/12 03:02:30;;;;;;;0.30;0.30;;;;;;;;;;5094842;28;20073;-94
2023/07/12 03:04:56;;;;;;;0.08;0.08;;;;;;;;;;5077089;28;20020;-93
2023/07/12 03:07:22;;;;;;;0.75;0.75;;;;;;;;;;5094490;28;20468;-94
2023/07/12 03:09:48;;;;;;;0.52;0.45;;;;;;;;;;5094708;28;20023;-93
2023/07/12 03:12:14;;;;;;;0.10;0.10;;;;;;;;;;5094680;28;20017;-93
2023/07/12 03:14:40;;;;;;;0.10;0.10;;;;;;;;;;5094915;28;20036;-93
2023/07/12 03:17:06;;;;;;;0.40;0.40;;;;;;;;;;5093930;28;20028;-93
2023/07/12 03:19:34;;;;;;;0.00;0.00;;;;;;;;;;5094900;28;20052;-93
2023/07/12 03:22:00;;;;;;;0.15;0.15;;;;;;;;;;5094194;28;20024;-94
2023/07/12 03:24:26;;;;;;;0.77;0.30;;;;;;;;;;5073957;28;20461;-94
2023/07/12 03:26:52;;;;;;;0.10;0.10;;;;;;;;;;5074015;28;20030;-94
2023/07/12 03:29:18;;;;;;;0.20;0.20;;;;;;;;;;5072652;28;20040;-93
2023/07/12 03:31:44;;;;;;;0.10;0.10;;;;;;;;;;5074334;28;20041;-94
2023/07/12 03:34:10;;;;;;;0.10;0.10;;;;;;;;;;5074053;28;20106;-94
2023/07/12 03:36:37;;;;;;;0.00;0.00;;;;;;;;;;5073630;28;20067;-93
2023/07/12 03:39:03;;;;;;;0.00;0.00;;;;;;;;;;5073876;28;20025;-93
2023/07/12 03:41:29;;;;;;;0.00;0.00;;;;;;;;;;5073677;28;20024;-94
2023/07/12 03:43:55;;;;;;;0.17;0.17;;;;;;;;;;5073878;28;20453;-94
2023/07/12 03:46:21;;;;;;;0.05;0.05;;;;;;;;;;5073711;28;20095;-94
2023/07/12 03:48:47;;;;;;;0.20;0.20;;;;;;;;;;5073591;28;20074;-93
2023/07/12 03:51:14;;;;;;;0.17;0.17;;;;;;;;;;5073739;28;20078;-93
2023/07/12 03:53:40;;;;;;;0.40;0.20;;;;;;;;;;5073441;28;20059;-93
2023/07/12 03:56:07;;;;;;;0.17;0.17;;;;;;;;;;5072162;28;20029;-93
2023/07/12 03:58:35;;;;;;;0.00;0.00;;;;;;;;;;5073366;28;20039;-94
2023/07/12 04:01:03;;;;;;;0.03;0.03;;;;;;;;;;5087375;28;20032;-93
2023/07/12 04:03:29;;;;;;;0.32;0.30;;;;;;;;;;5075639;28;20426;-94
2023/07/12 04:05:55;;;;;;;0.05;0.05;;;;;;;;;;5093467;28;20028;-93
2023/07/12 04:08:21;;;;;;;0.30;0.28;;;;;;;;;;5075325;28;20020;-93
2023/07/12 04:10:54;;;;;;;0.10;0.10;;;;;;;;;;5093400;28;20024;-92
2023/07/12 04:13:20;;;;;;;1.10;0.30;;;;;;;;;;5093430;28;20048;-93
2023/07/12 04:15:46;;;;;;;0.65;0.65;;;;;;;;;;5075525;28;20038;-94
2023/07/12 04:18:12;;;;;;;0.28;0.28;;;;;;;;;;5093560;28;20024;-92
2023/07/12 04:20:39;;;;;;;0.43;0.35;;;;;;;;;;5093102;28;20023;-93
2023/07/12 04:23:06;;;;;;;0.80;0.40;;;;;;;;;;5075092;28;20020;-93
2023/07/12 04:25:35;;;;;;;0.65;0.50;;;;;;;;;;5093085;28;20028;-94
2023/07/12 04:28:01;;;;;;;0.10;0.10;;;;;;;;;;5092741;28;20048;-93
2023/07/12 04:30:27;;;;;;;0.20;0.20;;;;;;;;;;5093277;28;20032;-93
2023/07/12 04:32:53;;;;;;;0.50;0.40;;;;;;;;;;5074815;28;20073;-94
2023/07/12 04:35:19;;;;;;;0.28;0.28;;;;;;;;;;5093174;28;20036;-94
2023/07/12 04:37:46;;;;;;;0.30;0.30;;;;;;;;;;5093153;28;20286;-93
2023/07/12 04:40:12;;;;;;;0.38;0.17;;;;;;;;;;5093207;28;20523;-94
2023/07/12 04:42:38;;;;;;;0.10;0.10;;;;;;;;;;5075133;28;20024;-93
2023/07/12 04:45:05;;;;;;;0.20;0.20;;;;;;;;;;5093188;28;20043;-94
2023/07/12 04:47:31;;;;;;;0.43;0.43;;;;;;;;;;5093365;28;20024;-93
2023/07/12 04:49:57;;;;;;;0.00;0.00;;;;;;;;;;5076179;28;20024;-92
2023/07/12 04:52:23;;;;;;;0.20;0.20;;;;;;;;;;5093120;28;20026;-94
2023/07/12 04:54:49;;;;;;;0.17;0.17;;;;;;;;;;5092705;28;20085;-93
2023/07/12 04:57:15;;;;;;;0.00;0.00;;;;;;;;;;5093280;28;20028;-93
2023/07/12 04:59:41;;;;;;;0.20;0.20;;;;;;;;;;5092846;28;20098;-93
2023/07/12 05:02:07;;;;;;;0.38;0.38;;;;;;;;;;5092968;28;20069;-93
2023/07/12 05:04:33;;;;;;;0.10;0.10;;;;;;;;;;5092953;28;20051;-93
2023/07/12 05:06:59;;;;;;;3.60;0.65;;;;;;;;;;5093503;28;20439;-93
2023/07/12 05:09:26;;;;;;;0.20;0.20;;;;;;;;;;5074726;28;20032;-93
2023/07/12 05:11:52;;;;;;;0.73;0.73;;;;;;;;;;5093541;28;20053;-95
2023/07/12 05:14:18;;;;;;;0.52;0.52;;;;;;;;;;5096010;28;20042;-96
2023/07/12 05:16:56;;;;;;;0.10;0.10;;;;;;;;;;5105949;28;20042;-96
2023/07/12 05:19:26;;;;;;;0.20;0.20;;;;;;;;;;5096322;28;20058;-96
2023/07/12 05:22:14;;;;;;;0.28;0.28;;;;;;;;;;5114092;28;20020;-96
2023/07/12 05:25:20;;;;;;;0.43;0.43;;;;;;;;;;5098385;28;20062;-96
2023/07/12 05:28:15;;;;;;;0.50;0.45;;;;;;;;;;5112886;28;20043;-96
2023/07/12 05:30:54;;;;;;;3.60;1.02;;;;;;;;;;5073150;28;20044;-96
2023/07/12 05:33:26;;;;;;;0.20;0.20;;;;;;;;;;5077621;28;20039;-96
2023/07/12 05:36:03;;;;;;;0.20;0.20;;;;;;;;;;5094362;28;20066;-96
2023/07/12 05:38:37;;;;;;;0.00;0.00;;;;;;;;;;5112033;28;20025;-96
2023/07/12 05:41:53;;;;;;;0.47;0.47;;;;;;;;;;5116100;28;20040;-96
2023/07/12 05:45:05;;;;;;;1.80;0.52;;;;;;;;;;5118429;28;20028;-96
2023/07/12 05:47:54;;;;;;;0.25;0.25;;;;;;;;;;5101721;28;20040;-96
2023/07/12 05:50:41;;;;;;;0.30;0.30;;;;;;;;;;5119402;28;20084;-96
2023/07/12 05:53:27;;;;;;;0.00;0.00;;;;;;;;;;5110169;28;20025;-92
2023/07/12 05:55:57;;;;;;;0.10;0.10;;;;;;;;;;5077816;28;20032;-93
2023/07/12 05:58:24;;;;;;;0.75;0.40;;;;;;;;;;5095896;28;20024;-93
2023/07/12 06:00:55;;;;;;;0.40;0.40;;;;;;;;;;5095384;28;20024;-93
2023/07/12 06:03:21;;;;;;;0.20;0.20;;;;;;;;;;5077713;28;20036;-93
2023/07/12 06:05:47;;;;;;;0.10;0.10;;;;;;;;;;5095931;28;20441;-93
2023/07/12 06:08:13;;;;;;;0.10;0.10;;;;;;;;;;5077704;28;20032;-94
2023/07/12 06:10:39;;;;;;;2.08;0.80;;;;;;;;;;5095603;28;20024;-93
2023/07/12 06:13:05;;;;;;;0.25;0.25;;;;;;;;;;5077576;28;20050;-93
2023/07/12 06:15:31;;;;;;;0.30;0.30;;;;;;;;;;5095349;28;20036;-94
2023/07/12 06:17:57;;;;;;;0.13;0.13;;;;;;;;;;5077745;28;20114;-93
2023/07/12 06:20:23;;;;;;;0.10;0.10;;;;;;;;;;5077836;28;20384;-93
2023/07/12 06:22:49;;;;;;;0.20;0.20;;;;;;;;;;5089394;28;20025;-94
2023/07/12 06:25:15;;;;;;;0.20;0.20;;;;;;;;;;5075254;28;20029;-93
2023/07/12 06:27:41;;;;;;;0.95;0.45;;;;;;;;;;5076022;28;20056;-93
2023/07/12 06:30:08;;;;;;;0.40;0.40;;;;;;;;;;5080806;28;20028;-96
2023/07/12 06:32:34;;;;;;;0.20;0.20;;;;;;;;;;5109010;28;20027;-96
2023/07/12 06:35:00;;;;;;;0.10;0.10;;;;;;;;;;5082520;28;20032;-95
2023/07/12 06:37:28;;;;;;;0.10;0.10;;;;;;;;;;5098211;28;20039;-96
2023/07/12 06:39:54;;;;;;;0.98;0.75;;;;;;;;;;5098959;28;20023;-94
2023/07/12 06:42:20;;;;;;;0.10;0.10;;;;;;;;;;5077347;28;20031;-94
2023/07/12 06:44:46;;;;;;;0.30;0.30;;;;;;;;;;5089320;28;20488;-95
2023/07/12 06:47:12;;;;;;;0.38;0.38;;;;;;;;;;5083458;28;20123;-94
2023/07/12 06:49:38;;;;;;;0.43;0.43;;;;;;;;;;5088489;28;20023;-92
2023/07/12 06:52:04;;;;;;;0.35;0.35;;;;;;;;;;5086084;28;20024;-94
2023/07/12 06:54:31;;;;;;;0.20;0.20;;;;;;;;;;5094079;28;20032;-92
2023/07/12 06:56:57;;;;;;;0.22;0.22;;;;;;;;;;5094454;28;20028;-93
2023/07/12 06:59:23;;;;;;;0.20;0.20;;;;;;;;;;5075480;28;20463;-92
2023/07/12 07:01:49;;;;;;;3.67;0.43;;;;;;;;;;5093774;28;20028;-93
2023/07/12 07:04:15;;;;;;;15.57;1.40;;;;;;;;;;5075652;28;20035;-92
2023/07/12 07:06:42;;;;;;;2.67;0.85;;;;;;;;;;5075790;28;20024;-91
2023/07/12 07:09:08;;;;;;;0.20;0.20;;;;;;;;;;5092388;28;20020;-93
2023/07/12 07:11:34;;;;;;;0.75;0.65;;;;;;;;;;5084565;28;20103;-94
2023/07/12 07:14:00;;;;;;;0.32;0.30;;;;;;;;;;5074926;28;20032;-93
2023/07/12 07:16:26;;;;;;;0.70;0.47;;;;;;;;;;5094457;28;20040;-96
2023/07/12 07:18:52;;;;;;;0.20;0.20;;;;;;;;;;5093821;28;20127;-94
2023/07/12 07:21:18;;;;;;;0.50;0.50;;;;;;;;;;5093932;28;20056;-95
2023/07/12 07:23:44;;;;;;;0.20;0.20;;;;;;;;;;5075915;28;20031;-96
2023/07/12 07:26:11;;;;;;;0.77;0.52;;;;;;;;;;5075215;28;20027;-92
2023/07/12 07:28:38;;;;;;;0.10;0.10;;;;;;;;;;5075257;28;20040;-95
2023/07/12 07:31:04;;;;;;;0.55;0.17;;;;;;;;;;5075489;28;20032;-92
2023/07/12 07:33:30;;;;;;;0.45;0.45;;;;;;;;;;5093005;28;20024;-91
2023/07/12 07:35:57;;;;;;;0.20;0.20;;;;;;;;;;5093732;28;20039;-94
2023/07/12 07:38:28;;;;;;;0.10;0.10;;;;;;;;;;5093244;28;20146;-93
2023/07/12 07:40:55;;;;;;;0.20;0.20;;;;;;;;;;5086104;28;20025;-94
2023/07/12 07:43:21;;;;;;;0.38;0.38;;;;;;;;;;5076230;28;20024;-95
2023/07/12 07:45:47;;;;;;;0.10;0.10;;;;;;;;;;5089517;28;20071;-95
2023/07/12 07:48:15;;;;;;;1.05;0.95;;;;;;;;;;5073651;28;20040;-91
2023/07/12 07:50:41;;;;;;;0.20;0.20;;;;;;;;;;5081743;28;20032;-92
2023/07/12 07:53:07;;;;;;;0.60;0.52;;;;;;;;;;5072975;28;20081;-93
2023/07/12 07:55:33;;;;;;;0.17;0.17;;;;;;;;;;5092517;28;20056;-91
2023/07/12 07:58:00;;;;;;;0.10;0.10;;;;;;;;;;5093157;28;20024;-92
2023/07/12 08:00:26;;;;;;;0.40;0.40;;;;;;;;;;5093066;28;20031;-93
2023/07/12 08:02:53;;;;;;;1.42;1.33;;;;;;;;;;5092370;28;20492;-93
2023/07/12 08:05:19;;;;;;;0.30;0.30;;;;;;;;;;5093213;28;20032;-93
2023/07/12 08:07:46;;;;;;;4.13;1.52;;;;;;;;;;5093153;28;20472;-93
2023/07/12 08:10:14;;;;;;;0.57;0.35;;;;;;;;;;5075017;28;20040;-91
2023/07/12 08:12:40;;;;;;;0.47;0.47;;;;;;;;;;5094603;28;20027;-95
2023/07/12 08:15:06;;;;;;;0.22;0.22;;;;;;;;;;5095534;28;20484;-95
2023/07/12 08:17:32;;;;;;;0.30;0.30;;;;;;;;;;5095646;28;20046;-96
2023/07/12 08:19:58;;;;;;;0.10;0.10;;;;;;;;;;5098525;28;20492;-94
2023/07/12 08:22:25;;;;;;;0.60;0.60;;;;;;;;;;5070810;28;20024;-95
2023/07/12 08:24:51;;;;;;;0.82;0.63;;;;;;;;;;5075601;28;20032;-94
2023/07/12 08:27:17;;;;;;;0.60;0.60;;;;;;;;;;5094291;28;20552;-96
2023/07/12 08:29:44;;;;;;;0.25;0.25;;;;;;;;;;5094724;28;20067;-95
2023/07/12 08:32:10;;;;;;;1.20;0.85;;;;;;;;;;5076573;28;20046;-93
2023/07/12 08:34:36;;;;;;;0.40;0.40;;;;;;;;;;5093928;28;20036;-95
2023/07/12 08:37:03;;;;;;;0.25;0.25;;;;;;;;;;5093214;28;20112;-94
2023/07/12 08:39:29;;;;;;;0.28;0.28;;;;;;;;;;5087358;28;20036;-95
2023/07/12 08:41:55;;;;;;;0.08;0.08;;;;;;;;;;5073144;28;20046;-94
2023/07/12 08:44:22;;;;;;;0.65;0.30;;;;;;;;;;5091846;28;20367;-96
2023/07/12 08:46:51;;;;;;;0.20;0.20;;;;;;;;;;5092940;28;20074;-94
2023/07/12 08:49:18;;;;;;;0.28;0.28;;;;;;;;;;5073821;28;20077;-91
2023/07/12 08:51:44;;;;;;;0.20;0.20;;;;;;;;;;5092187;28;20063;-92
2023/07/12 08:54:22;;;;;;;1.85;0.57;;;;;;;;;;5078290;28;20020;-91
2023/07/12 08:56:48;;;;;;;0.35;0.28;;;;;;;;;;5082610;28;20119;-93
2023/07/12 08:59:14;;;;;;;0.10;0.10;;;;;;;;;;5081242;28;20555;-94
2023/07/12 09:01:53;;;;;;;2.72;1.30;;;;;;;;;;5083648;28;20492;-93
2023/07/12 09:04:26;;;;;;;3.25;1.13;;;;;;;;;;5070786;28;20114;-92
2023/07/12 09:06:57;;;;;;;0.85;0.43;;;;;;;;;;5076060;28;20110;-90
2023/07/12 09:09:23;;;;;;;0.05;0.05;;;;;;;;;;5082369;28;20028;-91
2023/07/12 09:11:49;;;;;;;0.25;0.25;;;;;;;;;;5083131;28;20020;-93
2023/07/12 09:14:17;;;;;;;0.25;0.25;;;;;;;;;;5089264;28;20028;-92
2023/07/12 09:16:45;;;;;;;0.10;0.10;;;;;;;;;;5096362;28;20395;-93
2023/07/12 09:19:23;;;;;;;0.20;0.20;;;;;;;;;;5096950;28;20016;-92
2023/07/12 09:21:51;;;;;;;0.32;0.30;;;;;;;;;;5096544;28;20187;-93
2023/07/12 09:24:23;;;;;;;0.28;0.28;;;;;;;;;;5096197;28;20434;-93
2023/07/12 09:26:50;;;;;;;0.65;0.50;;;;;;;;;;5096518;28;20420;-93
2023/07/12 09:29:21;;;;;;;0.08;0.08;;;;;;;;;;5095929;28;20044;-92
2023/07/12 09:31:47;;;;;;;0.00;0.00;;;;;;;;;;5096243;28;20020;-93
2023/07/12 09:34:21;;;;;;;0.00;0.00;;;;;;;;;;5096385;28;20024;-93
2023/07/12 09:36:54;;;;;;;0.40;0.15;;;;;;;;;;5078398;28;20373;-93
2023/07/12 09:39:19;;;;;;;0.10;0.10;;;;;;;;;;5077447;28;20016;-92
2023/07/12 09:41:50;;;;;;;0.00;0.00;;;;;;;;;;5096156;28;20674;-92
2023/07/12 09:44:16;;;;;;;0.10;0.10;;;;;;;;;;5096432;28;20089;-93
2023/07/12 09:46:54;;;;;;;0.00;0.00;;;;;;;;;;5077968;28;20032;-92
2023/07/12 09:49:40;;;;;;;0.10;0.10;;;;;;;;;;5096220;28;20114;-93
2023/07/12 09:52:14;;;;;;;0.00;0.00;;;;;;;;;;5095577;28;20047;-92
2023/07/12 09:54:40;;;;;;;0.20;0.20;;;;;;;;;;5095835;28;20036;-92
2023/07/12 09:57:10;;;;;;;0.10;0.10;;;;;;;;;;5095854;28;20024;-90
2023/07/12 09:59:44;;;;;;;0.05;0.05;;;;;;;;;;5077549;28;20028;-91
2023/07/12 10:02:16;;;;;;;0.00;0.00;;;;;;;;;;5096430;28;20491;-93
2023/07/12 10:04:47;;;;;;;0.00;0.00;;;;;;;;;;5095765;28;20562;-93
2023/07/12 10:07:16;;;;;;;0.55;0.30;;;;;;;;;;5095516;28;20380;-93
2023/07/12 10:09:45;;;;;;;0.47;0.10;;;;;;;;;;5095942;28;20063;-93
2023/07/12 10:12:18;;;;;;;1.65;0.28;;;;;;;;;;5095721;28;20020;-93
2023/07/12 10:14:46;;;;;;;0.10;0.10;;;;;;;;;;5095757;28;20035;-91
2023/07/12 10:17:18;;;;;;;0.10;0.10;;;;;;;;;;5077187;28;20428;-91
2023/07/12 10:19:46;;;;;;;0.10;0.10;;;;;;;;;;5095408;28;20028;-90
2023/07/12 10:22:24;;;;;;;0.15;0.15;;;;;;;;;;5077178;28;20074;-91
2023/07/12 10:24:51;;;;;;;0.35;0.35;;;;;;;;;;5094684;28;20025;-91
2023/07/12 10:27:19;;;;;;;0.17;0.17;;;;;;;;;;5094979;28;20545;-90
2023/07/12 10:29:48;;;;;;;0.00;0.00;;;;;;;;;;5095715;28;20040;-90
2023/07/12 10:32:26;;;;;;;0.00;0.00;;;;;;;;;;5095328;28;20085;-91
2023/07/12 10:35:16;;;;;;;0.17;0.17;;;;;;;;;;5095467;28;20396;-91
2023/07/12 10:37:47;;;;;;;0.55;0.10;;;;;;;;;;5095269;28;20099;-93
2023/07/12 10:40:18;;;;;;;0.20;0.20;;;;;;;;;;5095327;28;20024;-91
2023/07/12 10:42:58;;;;;;;0.20;0.20;;;;;;;;;;5076849;28;20020;-91
2023/07/12 10:45:26;;;;;;;0.45;0.40;;;;;;;;;;5095242;28;20480;-91
2023/07/12 10:47:53;;;;;;;0.00;0.00;;;;;;;;;;5095425;28;20076;-91
2023/07/12 10:50:23;;;;;;;0.00;0.00;;;;;;;;;;5094643;28;20028;-91
2023/07/12 10:53:08;;;;;;;1.02;0.93;;;;;;;;;;5095038;28;20046;-91
2023/07/12 10:55:57;;;;;;;0.45;0.40;;;;;;;;;;5094650;28;20033;-90
2023/07/12 10:58:25;;;;;;;0.50;0.40;;;;;;;;;;5082007;28;20523;-93
2023/07/12 11:00:52;;;;;;;0.63;0.57;;;;;;;;;;5076545;28;20036;-92
2023/07/12 11:03:20;;;;;;;1.85;0.95;;;;;;;;;;5094818;28;20109;-93
2023/07/12 11:05:58;;;;;;;0.32;0.32;;;;;;;;;;5094258;28;20012;-91
2023/07/12 11:08:33;;;;;;;0.38;0.38;;;;;;;;;;5076462;28;20024;-90
2023/07/12 11:11:00;;;;;;;0.10;0.10;;;;;;;;;;5094277;28;20024;-92
2023/07/12 11:13:30;;;;;;;0.15;0.15;;;;;;;;;;5094501;28;20131;-91
2023/07/12 11:16:02;;;;;;;0.30;0.30;;;;;;;;;;5094320;28;20082;-91
2023/07/12 11:18:36;;;;;;;0.20;0.20;;;;;;;;;;5094323;28;20488;-91
2023/07/12 11:21:04;;;;;;;0.15;0.15;;;;;;;;;;5094233;28;20028;-91
2023/07/12 11:23:46;;;;;;;0.22;0.22;;;;;;;;;;5094298;28;20016;-91
2023/07/12 11:26:21;;;;;;;0.10;0.10;;;;;;;;;;5076115;28;20028;-91
2023/07/12 11:28:47;;;;;;;0.03;0.03;;;;;;;;;;5075789;28;20139;-91
2023/07/12 11:31:18;;;;;;;0.30;0.30;;;;;;;;;;5094444;28;20034;-91
2023/07/12 11:33:49;;;;;;;0.20;0.20;;;;;;;;;;5093665;28;20051;-91
2023/07/12 11:36:23;;;;;;;0.22;0.17;;;;;;;;;;5093356;28;20028;-91
2023/07/12 11:38:50;;;;;;;0.65;0.60;;;;;;;;;;5094335;28;20024;-91
2023/07/12 11:41:17;;;;;;;0.55;0.52;;;;;;;;;;5094025;28;20028;-92
2023/07/12 11:43:43;;;;;;;0.30;0.30;;;;;;;;;;5093797;28;20024;-91
2023/07/12 11:46:15;;;;;;;0.75;0.50;;;;;;;;;;5075652;28;20031;-91
2023/07/12 11:48:43;;;;;;;0.40;0.22;;;;;;;;;;5075773;28;20034;-91
2023/07/12 11:51:16;;;;;;;0.20;0.20;;;;;;;;;;5093699;28;20473;-91
2023/07/12 11:53:50;;;;;;;0.15;0.15;;;;;;;;;;5093784;28;20039;-91
2023/07/12 11:56:16;;;;;;;0.30;0.30;;;;;;;;;;5093620;28;20032;-91
2023/07/12 11:58:42;;;;;;;0.30;0.30;;;;;;;;;;5075727;28;20024;-91
2023/07/12 12:01:13;;;;;;;0.03;0.03;;;;;;;;;;5075255;28;20473;-91
2023/07/12 12:03:39;;;;;;;3.40;0.20;;;;;;;;;;5093385;28;20487;-93
2023/07/12 12:06:06;;;;;;;0.00;0.00;;;;;;;;;;5093598;28;20056;-94
2023/07/12 12:08:33;;;;;;;0.10;0.10;;;;;;;;;;5093248;28;20088;-93
2023/07/12 12:10:59;;;;;;;0.50;0.50;;;;;;;;;;5093898;28;20028;-93
2023/07/12 12:13:27;;;;;;;0.10;0.10;;;;;;;;;;5093557;28;20020;-93
2023/07/12 12:16:06;;;;;;;0.20;0.20;;;;;;;;;;5093390;28;20036;-93
2023/07/12 12:18:34;;;;;;;0.13;0.13;;;;;;;;;;5092877;28;20035;-91
2023/07/12 12:21:01;;;;;;;0.50;0.40;;;;;;;;;;5093399;28;20030;-91
2023/07/12 12:23:30;;;;;;;0.20;0.20;;;;;;;;;;5092939;28;20035;-91
2023/07/12 12:25:58;;;;;;;0.13;0.13;;;;;;;;;;5093153;28;20028;-91
2023/07/12 12:28:29;;;;;;;0.10;0.10;;;;;;;;;;5093166;28;20414;-91
2023/07/12 12:31:05;;;;;;;0.03;0.03;;;;;;;;;;5093374;28;20031;-90
2023/07/12 12:33:31;;;;;;;0.57;0.57;;;;;;;;;;5093252;28;20485;-92
2023/07/12 12:36:02;;;;;;;0.30;0.30;;;;;;;;;;5093123;28;20044;-92
2023/07/12 12:38:33;;;;;;;1.10;0.68;;;;;;;;;;5093023;28;20103;-91
2023/07/12 12:41:09;;;;;;;0.15;0.15;;;;;;;;;;5093336;28;20020;-92
2023/07/12 12:43:35;;;;;;;0.50;0.50;;;;;;;;;;5075314;28;20477;-91
2023/07/12 12:46:02;;;;;;;0.10;0.10;;;;;;;;;;5092443;28;20488;-91
2023/07/12 12:48:28;;;;;;;0.30;0.30;;;;;;;;;;5092730;28;20020;-93
2023/07/12 12:50:54;;;;;;;0.20;0.20;;;;;;;;;;5093129;28;20035;-91
2023/07/12 12:53:20;;;;;;;0.10;0.10;;;;;;;;;;5093075;28;20032;-91
2023/07/12 12:55:48;;;;;;;0.77;0.30;;;;;;;;;;5092907;28;20085;-92
2023/07/12 12:58:14;;;;;;;0.20;0.20;;;;;;;;;;5093295;28;20487;-91
2023/07/12 13:00:42;;;;;;;0.20;0.20;;;;;;;;;;5092619;28;20020;-91
2023/07/12 13:03:12;;;;;;;0.05;0.05;;;;;;;;;;5092910;28;20514;-91
2023/07/12 13:05:38;;;;;;;0.75;0.57;;;;;;;;;;5092718;28;20027;-91
2023/07/12 13:08:10;;;;;;;0.50;0.50;;;;;;;;;;5075054;28;20081;-92
2023/07/12 13:10:36;;;;;;;0.17;0.17;;;;;;;;;;5074666;28;20023;-91
2023/07/12 13:13:04;;;;;;;0.57;0.35;;;;;;;;;;5092745;28;20028;-91
2023/07/12 13:15:30;;;;;;;0.10;0.10;;;;;;;;;;5092438;28;20036;-91
2023/07/12 13:17:56;;;;;;;0.22;0.22;;;;;;;;;;5093146;28;20565;-91
2023/07/12 13:20:25;;;;;;;0.80;0.50;;;;;;;;;;5074470;28;20078;-91
2023/07/12 13:22:51;;;;;;;0.03;0.03;;;;;;;;;;5092466;28;20040;-90
2023/07/12 13:25:17;;;;;;;0.10;0.10;;;;;;;;;;5092742;28;20020;-91
2023/07/12 13:27:45;;;;;;;0.32;0.32;;;;;;;;;;5092519;28;20040;-91
2023/07/12 13:30:13;;;;;;;0.75;0.52;;;;;;;;;;5092655;28;20107;-90
2023/07/12 13:32:39;;;;;;;0.10;0.10;;;;;;;;;;5092451;28;20028;-91
2023/07/12 13:35:05;;;;;;;0.10;0.10;;;;;;;;;;5092410;28;20423;-91
2023/07/12 13:37:32;;;;;;;1.13;0.60;;;;;;;;;;5092450;28;20461;-91
2023/07/12 13:39:58;;;;;;;0.10;0.10;;;;;;;;;;5092553;28;20042;-90
2023/07/12 13:42:24;;;;;;;0.57;0.20;;;;;;;;;;5092382;28;20103;-91
2023/07/12 13:44:51;;;;;;;0.05;0.05;;;;;;;;;;5073745;28;20028;-90
2023/07/12 13:47:19;;;;;;;0.13;0.13;;;;;;;;;;5092481;28;20032;-90
2023/07/12 13:49:46;;;;;;;0.22;0.22;;;;;;;;;;5092790;28;20020;-91
2023/07/12 13:52:13;;;;;;;2.50;0.98;;;;;;;;;;5092403;28;20380;-91
2023/07/12 13:54:39;;;;;;;0.20;0.20;;;;;;;;;;5092162;28;20443;-91
2023/07/12 13:57:08;;;;;;;0.28;0.17;;;;;;;;;;5092324;28;20409;-91
2023/07/12 13:59:34;;;;;;;0.10;0.10;;;;;;;;;;5073990;28;20028;-90
2023/07/12 14:02:00;;;;;;;0.95;0.40;;;;;;;;;;5096961;28;20460;-91
2023/07/12 14:04:26;;;;;;;0.22;0.22;;;;;;;;;;5095674;28;20028;-91
2023/07/12 14:06:52;;;;;;;0.10;0.10;;;;;;;;;;5095770;28;20116;-91
2023/07/12 14:09:19;;;;;;;0.10;0.10;;;;;;;;;;5095665;28;20099;-91
2023/07/12 14:11:45;;;;;;;0.47;0.35;;;;;;;;;;5095631;28;20016;-91
2023/07/12 14:14:14;;;;;;;0.20;0.20;;;;;;;;;;5095597;28;20057;-89
2023/07/12 14:16:40;;;;;;;0.10;0.10;;;;;;;;;;5095870;28;20020;-91
2023/07/12 14:19:06;;;;;;;1.23;0.43;;;;;;;;;;5095361;28;20056;-90
2023/07/12 14:21:32;;;;;;;0.28;0.28;;;;;;;;;;5077390;28;20048;-91
2023/07/12 14:23:58;;;;;;;0.28;0.20;;;;;;;;;;5095621;28;20570;-90
2023/07/12 14:26:25;;;;;;;7.47;1.75;;;;;;;;;;5095426;28;20042;-91
2023/07/12 14:28:53;;;;;;;0.22;0.20;;;;;;;;;;5095028;28;20052;-91
2023/07/12 14:31:23;;;;;;;0.10;0.10;;;;;;;;;;5095188;28;20391;-91
2023/07/12 14:33:49;;;;;;;1.00;0.55;;;;;;;;;;5095201;28;20032;-91
2023/07/12 14:36:16;;;;;;;0.00;0.00;;;;;;;;;;5095158;28;20030;-91
2023/07/12 14:38:43;;;;;;;0.10;0.10;;;;;;;;;;5095061;28;20468;-91
2023/07/12 14:41:26;;;;;;;0.05;0.05;;;;;;;;;;5095306;28;20024;-91
2023/07/12 14:43:53;;;;;;;0.63;0.63;;;;;;;;;;5093039;28;20028;-91
2023/07/12 14:46:19;;;;;;;0.10;0.10;;;;;;;;;;5065416;28;20428;-91
2023/07/12 14:48:45;;;;;;;0.00;0.00;;;;;;;;;;5094472;28;20120;-91
2023/07/12 14:51:25;;;;;;;0.10;0.10;;;;;;;;;;5094485;28;20450;-91